Khorramabad, Iran
Current Conditions -  °F | °C
As of 5:30 PM on Thursday 29 Jan 2015 (Local Time) from OICC Reporting Station
Overcast Overcast  
Wind Chill: 50°   Ceiling: 8000
Heat Index: 50°   Visibility: 6mi
Dew Point: 36°   Wind: 12mph
Humidity: 58%   Direction: 140°SE
Pressure: 30.06"   Gusts: NA
Location:  33.47°N, 48.35°E
Report Text: OICC 291430Z 14010KT 9999 FEW035CB SCT040 OVC080 10/02 Q1018 A3006 TEMPO RA
Loading
Personal Weather Stations






























Interactive Weather Map New forecast layout! Learn more

10-Day Weather Forecast

Advertisements
Track Severe Weather on mobile